sensor_id;sensor_type;location;lat;lon;timestamp;temperature;humidity
7694;DHT22;3889;48.162;11.510;2022-07-21T00:00:55;21.50;99.90
7694;DHT22;3889;48.162;11.510;2022-07-21T00:03:23;21.30;99.90
7694;DHT22;3889;48.162;11.510;2022-07-21T00:05:53;21.30;99.90
7694;DHT22;3889;48.162;11.510;2022-07-21T00:08:21;21.40;99.90
7694;DHT22;3889;48.162;11.510;2022-07-21T00:10:49;21.40;99.90
7694;DHT22;3889;48.162;11.510;2022-07-21T00:13:17;21.30;99.90
7694;DHT22;3889;48.162;11.510;2022-07-21T00:15:45;21.10;99.90
7694;DHT22;3889;48.162;11.510;2022-07-21T00:18:13;21.00;99.90
7694;DHT22;3889;48.162;11.510;2022-07-21T00:20:42;21.10;99.90
7694;DHT22;3889;48.162;11.510;2022-07-21T00:23:11;21.10;99.90
7694;DHT22;3889;48.162;11.510;2022-07-21T00:25:39;21.00;99.90
7694;DHT22;3889;48.162;11.510;2022-07-21T00:28:07;21.20;99.90
7694;DHT22;3889;48.162;11.510;2022-07-21T00:30:35;21.00;99.90
7694;DHT22;3889;48.162;11.510;2022-07-21T00:33:03;20.90;99.90
7694;DHT22;3889;48.162;11.510;2022-07-21T00:35:31;21.00;99.90
7694;DHT22;3889;48.162;11.510;2022-07-21T00:37:59;20.90;99.90
7694;DHT22;3889;48.162;11.510;2022-07-21T00:40:29;20.80;99.90
7694;DHT22;3889;48.162;11.510;2022-07-21T00:42:57;20.80;99.90
7694;DHT22;3889;48.162;11.510;2022-07-21T00:45:25;20.80;99.90
7694;DHT22;3889;48.162;11.510;2022-07-21T00:47:53;20.90;99.90
7694;DHT22;3889;48.162;11.510;2022-07-21T00:50:21;20.90;99.90
7694;DHT22;3889;48.162;11.510;2022-07-21T00:52:50;20.90;99.90
7694;DHT22;3889;48.162;11.510;2022-07-21T00:55:20;20.90;99.90
7694;DHT22;3889;48.162;11.510;2022-07-21T00:57:51;20.90;99.90
7694;DHT22;3889;48.162;11.510;2022-07-21T01:00:21;20.80;99.90
7694;DHT22;3889;48.162;11.510;2022-07-21T01:02:50;20.80;99.90
7694;DHT22;3889;48.162;11.510;2022-07-21T01:05:18;20.90;99.90
7694;DHT22;3889;48.162;11.510;2022-07-21T01:07:48;20.80;99.90
7694;DHT22;3889;48.162;11.510;2022-07-21T01:10:18;20.80;99.90
7694;DHT22;3889;48.162;11.510;2022-07-21T01:12:46;20.90;99.90
7694;DHT22;3889;48.162;11.510;2022-07-21T01:15:16;21.00;99.90
7694;DHT22;3889;48.162;11.510;2022-07-21T01:17:46;21.00;99.90
7694;DHT22;3889;48.162;11.510;2022-07-21T01:20:17;20.90;99.90
7694;DHT22;3889;48.162;11.510;2022-07-21T01:22:48;20.80;99.90
7694;DHT22;3889;48.162;11.510;2022-07-21T01:25:17;20.80;99.90
7694;DHT22;3889;48.162;11.510;2022-07-21T01:27:46;20.80;99.90
7694;DHT22;3889;48.162;11.510;2022-07-21T01:30:14;20.90;99.90
7694;DHT22;3889;48.162;11.510;2022-07-21T01:32:42;20.80;99.90
7694;DHT22;3889;48.162;11.510;2022-07-21T01:35:12;20.90;99.90
7694;DHT22;3889;48.162;11.510;2022-07-21T01:37:43;20.80;99.90
7694;DHT22;3889;48.162;11.510;2022-07-21T01:40:13;20.80;99.90
7694;DHT22;3889;48.162;11.510;2022-07-21T01:42:59;20.80;99.90
7694;DHT22;3889;48.162;11.510;2022-07-21T01:45:27;20.70;99.90
7694;DHT22;3889;48.162;11.510;2022-07-21T01:47:56;20.70;99.90
7694;DHT22;3889;48.162;11.510;2022-07-21T01:50:24;20.70;99.90
7694;DHT22;3889;48.162;11.510;2022-07-21T01:52:55;20.60;99.90
7694;DHT22;3889;48.162;11.510;2022-07-21T01:55:26;20.70;99.90
7694;DHT22;3889;48.162;11.510;2022-07-21T01:57:54;20.80;99.90
7694;DHT22;3889;48.162;11.510;2022-07-21T02:00:22;20.90;99.90
7694;DHT22;3889;48.162;11.510;2022-07-21T02:02:50;20.90;99.90
7694;DHT22;3889;48.162;11.510;2022-07-21T02:05:18;20.90;99.90
7694;DHT22;3889;48.162;11.510;2022-07-21T02:07:46;21.00;99.90
7694;DHT22;3889;48.162;11.510;2022-07-21T02:10:14;20.90;99.90
7694;DHT22;3889;48.162;11.510;2022-07-21T02:12:43;21.10;99.90
7694;DHT22;3889;48.162;11.510;2022-07-21T02:15:12;21.10;99.90
7694;DHT22;3889;48.162;11.510;2022-07-21T02:17:40;20.90;99.90
7694;DHT22;3889;48.162;11.510;2022-07-21T02:20:09;20.90;99.90
7694;DHT22;3889;48.162;11.510;2022-07-21T02:22:37;20.90;99.90
7694;DHT22;3889;48.162;11.510;2022-07-21T02:25:05;20.80;99.90
7694;DHT22;3889;48.162;11.510;2022-07-21T02:27:33;20.80;99.90
7694;DHT22;3889;48.162;11.510;2022-07-21T02:30:03;20.90;99.90
7694;DHT22;3889;48.162;11.510;2022-07-21T02:32:32;20.90;99.90
7694;DHT22;3889;48.162;11.510;2022-07-21T02:34:59;20.90;99.90
7694;DHT22;3889;48.162;11.510;2022-07-21T02:37:28;20.90;99.90
7694;DHT22;3889;48.162;11.510;2022-07-21T02:39:56;20.90;99.90
7694;DHT22;3889;48.162;11.510;2022-07-21T02:42:24;20.80;99.90
7694;DHT22;3889;48.162;11.510;2022-07-21T02:44:52;20.90;99.90
7694;DHT22;3889;48.162;11.510;2022-07-21T02:47:22;20.80;99.90
7694;DHT22;3889;48.162;11.510;2022-07-21T02:49:50;20.80;99.90
7694;DHT22;3889;48.162;11.510;2022-07-21T02:52:17;20.90;99.90
7694;DHT22;3889;48.162;11.510;2022-07-21T02:54:47;20.90;99.90
7694;DHT22;3889;48.162;11.510;2022-07-21T02:57:15;21.00;99.90
7694;DHT22;3889;48.162;11.510;2022-07-21T02:59:43;20.90;99.90
7694;DHT22;3889;48.162;11.510;2022-07-21T03:02:11;20.90;99.90
7694;DHT22;3889;48.162;11.510;2022-07-21T03:04:40;20.90;99.90
7694;DHT22;3889;48.162;11.510;2022-07-21T03:07:08;20.90;99.90
7694;DHT22;3889;48.162;11.510;2022-07-21T03:09:35;20.80;99.90
7694;DHT22;3889;48.162;11.510;2022-07-21T03:12:04;20.80;99.90
7694;DHT22;3889;48.162;11.510;2022-07-21T03:14:31;20.80;99.90
7694;DHT22;3889;48.162;11.510;2022-07-21T03:16:59;20.80;99.90
7694;DHT22;3889;48.162;11.510;2022-07-21T03:19:29;20.80;99.90
7694;DHT22;3889;48.162;11.510;2022-07-21T03:21:58;20.80;99.90
7694;DHT22;3889;48.162;11.510;2022-07-21T03:24:26;20.70;99.90
7694;DHT22;3889;48.162;11.510;2022-07-21T03:26:55;20.60;99.90
7694;DHT22;3889;48.162;11.510;2022-07-21T03:29:23;20.70;99.90
7694;DHT22;3889;48.162;11.510;2022-07-21T03:31:51;20.70;99.90
7694;DHT22;3889;48.162;11.510;2022-07-21T03:34:19;20.70;99.90
7694;DHT22;3889;48.162;11.510;2022-07-21T03:36:47;20.70;99.90
7694;DHT22;3889;48.162;11.510;2022-07-21T03:39:16;20.70;99.90
7694;DHT22;3889;48.162;11.510;2022-07-21T03:41:44;20.80;99.90
7694;DHT22;3889;48.162;11.510;2022-07-21T03:44:12;20.80;99.90
7694;DHT22;3889;48.162;11.510;2022-07-21T03:46:40;20.80;99.90
7694;DHT22;3889;48.162;11.510;2022-07-21T03:49:08;20.70;99.90
7694;DHT22;3889;48.162;11.510;2022-07-21T03:51:35;20.70;99.90
7694;DHT22;3889;48.162;11.510;2022-07-21T03:54:03;20.80;99.90
7694;DHT22;3889;48.162;11.510;2022-07-21T03:56:33;20.80;99.90
7694;DHT22;3889;48.162;11.510;2022-07-21T03:59:00;20.80;99.90
7694;DHT22;3889;48.162;11.510;2022-07-21T04:01:29;20.80;99.90
7694;DHT22;3889;48.162;11.510;2022-07-21T04:03:57;20.80;99.90
7694;DHT22;3889;48.162;11.510;2022-07-21T04:06:25;20.80;99.90
7694;DHT22;3889;48.162;11.510;2022-07-21T04:08:52;20.60;99.90
7694;DHT22;3889;48.162;11.510;2022-07-21T04:11:21;20.70;99.90
7694;DHT22;3889;48.162;11.510;2022-07-21T04:13:51;20.70;99.90
7694;DHT22;3889;48.162;11.510;2022-07-21T04:16:19;20.70;99.90
7694;DHT22;3889;48.162;11.510;2022-07-21T04:18:47;20.70;99.90
7694;DHT22;3889;48.162;11.510;2022-07-21T04:21:16;20.70;99.90
7694;DHT22;3889;48.162;11.510;2022-07-21T04:23:43;20.80;99.90
7694;DHT22;3889;48.162;11.510;2022-07-21T04:26:11;20.80;99.90
7694;DHT22;3889;48.162;11.510;2022-07-21T04:28:39;20.80;99.90
7694;DHT22;3889;48.162;11.510;2022-07-21T04:31:08;20.80;99.90
7694;DHT22;3889;48.162;11.510;2022-07-21T04:33:37;20.80;99.90
7694;DHT22;3889;48.162;11.510;2022-07-21T04:36:06;20.70;99.90
7694;DHT22;3889;48.162;11.510;2022-07-21T04:38:34;20.80;99.90
7694;DHT22;3889;48.162;11.510;2022-07-21T04:41:02;20.80;99.90
7694;DHT22;3889;48.162;11.510;2022-07-21T04:43:30;20.80;99.90
7694;DHT22;3889;48.162;11.510;2022-07-21T04:45:58;20.80;99.90
7694;DHT22;3889;48.162;11.510;2022-07-21T04:48:29;20.80;99.90
7694;DHT22;3889;48.162;11.510;2022-07-21T04:50:57;20.80;99.90
7694;DHT22;3889;48.162;11.510;2022-07-21T04:53:24;20.80;99.90
7694;DHT22;3889;48.162;11.510;2022-07-21T04:55:52;20.80;99.90
7694;DHT22;3889;48.162;11.510;2022-07-21T04:58:20;20.70;99.90
7694;DHT22;3889;48.162;11.510;2022-07-21T05:00:48;20.70;99.90
7694;DHT22;3889;48.162;11.510;2022-07-21T05:03:16;20.70;99.90
7694;DHT22;3889;48.162;11.510;2022-07-21T05:05:45;20.80;99.90
7694;DHT22;3889;48.162;11.510;2022-07-21T05:08:13;20.90;99.90
7694;DHT22;3889;48.162;11.510;2022-07-21T05:10:41;20.90;99.90
7694;DHT22;3889;48.162;11.510;2022-07-21T05:13:09;20.80;99.90
7694;DHT22;3889;48.162;11.510;2022-07-21T05:15:37;20.80;99.90
7694;DHT22;3889;48.162;11.510;2022-07-21T05:18:07;20.80;99.90
7694;DHT22;3889;48.162;11.510;2022-07-21T05:20:35;20.90;99.90
7694;DHT22;3889;48.162;11.510;2022-07-21T05:23:04;20.90;99.90
7694;DHT22;3889;48.162;11.510;2022-07-21T05:25:32;20.90;99.90
7694;DHT22;3889;48.162;11.510;2022-07-21T05:28:02;20.90;99.90
7694;DHT22;3889;48.162;11.510;2022-07-21T05:30:30;21.00;99.90
7694;DHT22;3889;48.162;11.510;2022-07-21T05:32:58;21.00;99.90
7694;DHT22;3889;48.162;11.510;2022-07-21T05:35:26;21.10;99.90
7694;DHT22;3889;48.162;11.510;2022-07-21T05:37:54;21.20;99.90
7694;DHT22;3889;48.162;11.510;2022-07-21T05:40:23;21.20;99.90
7694;DHT22;3889;48.162;11.510;2022-07-21T05:42:51;21.20;99.90
7694;DHT22;3889;48.162;11.510;2022-07-21T05:45:19;21.30;99.90
7694;DHT22;3889;48.162;11.510;2022-07-21T05:47:47;21.30;99.90
7694;DHT22;3889;48.162;11.510;2022-07-21T05:50:15;21.40;99.90
7694;DHT22;3889;48.162;11.510;2022-07-21T05:52:43;21.40;99.90
7694;DHT22;3889;48.162;11.510;2022-07-21T05:55:11;21.40;99.90
7694;DHT22;3889;48.162;11.510;2022-07-21T05:57:40;21.40;99.90
7694;DHT22;3889;48.162;11.510;2022-07-21T06:00:13;21.50;99.90
7694;DHT22;3889;48.162;11.510;2022-07-21T06:02:41;21.40;99.90
7694;DHT22;3889;48.162;11.510;2022-07-21T06:05:09;21.50;99.90
7694;DHT22;3889;48.162;11.510;2022-07-21T06:07:38;21.40;99.90
7694;DHT22;3889;48.162;11.510;2022-07-21T06:10:07;21.50;99.90
7694;DHT22;3889;48.162;11.510;2022-07-21T06:12:42;21.50;99.90
7694;DHT22;3889;48.162;11.510;2022-07-21T06:15:11;21.60;99.90
7694;DHT22;3889;48.162;11.510;2022-07-21T06:17:40;21.50;99.90
7694;DHT22;3889;48.162;11.510;2022-07-21T06:20:09;21.60;99.90
7694;DHT22;3889;48.162;11.510;2022-07-21T06:22:37;21.60;99.90
7694;DHT22;3889;48.162;11.510;2022-07-21T06:25:06;21.70;99.90
7694;DHT22;3889;48.162;11.510;2022-07-21T06:27:34;21.70;99.90
7694;DHT22;3889;48.162;11.510;2022-07-21T06:30:04;21.70;99.90
7694;DHT22;3889;48.162;11.510;2022-07-21T06:32:32;21.70;99.90
7694;DHT22;3889;48.162;11.510;2022-07-21T06:35:00;21.70;99.90
7694;DHT22;3889;48.162;11.510;2022-07-21T06:37:28;21.60;99.90
7694;DHT22;3889;48.162;11.510;2022-07-21T06:39:56;21.60;99.90
7694;DHT22;3889;48.162;11.510;2022-07-21T06:42:24;21.70;99.90
7694;DHT22;3889;48.162;11.510;2022-07-21T06:44:52;21.70;99.90
7694;DHT22;3889;48.162;11.510;2022-07-21T06:47:21;21.80;99.90
7694;DHT22;3889;48.162;11.510;2022-07-21T06:49:49;21.80;99.90
7694;DHT22;3889;48.162;11.510;2022-07-21T06:52:17;21.80;99.90
7694;DHT22;3889;48.162;11.510;2022-07-21T06:54:45;22.00;99.90
7694;DHT22;3889;48.162;11.510;2022-07-21T06:57:13;22.00;99.90
7694;DHT22;3889;48.162;11.510;2022-07-21T06:59:41;22.10;99.90
7694;DHT22;3889;48.162;11.510;2022-07-21T07:02:09;22.10;99.90
7694;DHT22;3889;48.162;11.510;2022-07-21T07:04:39;22.10;99.90
7694;DHT22;3889;48.162;11.510;2022-07-21T07:07:07;22.10;99.90
7694;DHT22;3889;48.162;11.510;2022-07-21T07:09:36;22.10;99.90
7694;DHT22;3889;48.162;11.510;2022-07-21T07:12:05;22.20;99.90
7694;DHT22;3889;48.162;11.510;2022-07-21T07:14:55;22.20;99.90
7694;DHT22;3889;48.162;11.510;2022-07-21T07:17:23;22.20;99.90
7694;DHT22;3889;48.162;11.510;2022-07-21T07:19:52;22.20;99.90
7694;DHT22;3889;48.162;11.510;2022-07-21T07:22:20;22.20;99.90
7694;DHT22;3889;48.162;11.510;2022-07-21T07:24:48;22.30;99.90
7694;DHT22;3889;48.162;11.510;2022-07-21T07:27:16;22.30;99.90
7694;DHT22;3889;48.162;11.510;2022-07-21T07:29:49;22.20;99.90
7694;DHT22;3889;48.162;11.510;2022-07-21T07:32:17;22.30;99.90
7694;DHT22;3889;48.162;11.510;2022-07-21T07:34:45;22.40;99.90
7694;DHT22;3889;48.162;11.510;2022-07-21T07:37:14;22.50;99.90
7694;DHT22;3889;48.162;11.510;2022-07-21T07:39:42;22.80;99.90
7694;DHT22;3889;48.162;11.510;2022-07-21T07:42:10;22.90;99.90
7694;DHT22;3889;48.162;11.510;2022-07-21T07:44:38;23.10;99.90
7694;DHT22;3889;48.162;11.510;2022-07-21T07:47:06;22.80;99.90
7694;DHT22;3889;48.162;11.510;2022-07-21T07:49:34;22.70;99.90
7694;DHT22;3889;48.162;11.510;2022-07-21T07:52:02;22.70;99.90
7694;DHT22;3889;48.162;11.510;2022-07-21T07:54:32;22.70;99.90
7694;DHT22;3889;48.162;11.510;2022-07-21T07:57:00;22.60;99.90
7694;DHT22;3889;48.162;11.510;2022-07-21T07:59:28;22.60;99.90
7694;DHT22;3889;48.162;11.510;2022-07-21T08:01:55;22.50;99.90
7694;DHT22;3889;48.162;11.510;2022-07-21T08:04:23;22.70;99.90
7694;DHT22;3889;48.162;11.510;2022-07-21T08:06:52;22.80;99.90
7694;DHT22;3889;48.162;11.510;2022-07-21T08:09:19;22.80;99.90
7694;DHT22;3889;48.162;11.510;2022-07-21T08:11:49;22.90;99.90
7694;DHT22;3889;48.162;11.510;2022-07-21T08:14:17;22.90;99.90
7694;DHT22;3889;48.162;11.510;2022-07-21T08:16:45;22.80;99.90
7694;DHT22;3889;48.162;11.510;2022-07-21T08:19:13;22.50;99.90
7694;DHT22;3889;48.162;11.510;2022-07-21T08:21:41;22.60;99.90
7694;DHT22;3889;48.162;11.510;2022-07-21T08:24:29;22.50;99.90
7694;DHT22;3889;48.162;11.510;2022-07-21T08:26:58;22.50;99.90
7694;DHT22;3889;48.162;11.510;2022-07-21T08:29:26;22.70;99.90
7694;DHT22;3889;48.162;11.510;2022-07-21T08:31:54;22.80;99.90
7694;DHT22;3889;48.162;11.510;2022-07-21T08:34:22;22.80;99.90
7694;DHT22;3889;48.162;11.510;2022-07-21T08:36:50;22.90;99.90
7694;DHT22;3889;48.162;11.510;2022-07-21T08:39:18;22.90;99.90
7694;DHT22;3889;48.162;11.510;2022-07-21T08:41:47;22.90;99.90
7694;DHT22;3889;48.162;11.510;2022-07-21T08:44:20;22.90;99.90
7694;DHT22;3889;48.162;11.510;2022-07-21T08:46:50;22.70;99.90
7694;DHT22;3889;48.162;11.510;2022-07-21T08:49:20;22.60;99.90
7694;DHT22;3889;48.162;11.510;2022-07-21T08:51:50;22.60;99.90
7694;DHT22;3889;48.162;11.510;2022-07-21T08:54:20;22.60;99.90
7694;DHT22;3889;48.162;11.510;2022-07-21T08:56:49;22.60;99.90
7694;DHT22;3889;48.162;11.510;2022-07-21T08:59:18;22.50;99.90
7694;DHT22;3889;48.162;11.510;2022-07-21T09:01:55;22.50;99.90
7694;DHT22;3889;48.162;11.510;2022-07-21T09:04:25;22.50;99.90
7694;DHT22;3889;48.162;11.510;2022-07-21T09:06:56;22.30;99.90
7694;DHT22;3889;48.162;11.510;2022-07-21T09:09:24;22.20;99.90
7694;DHT22;3889;48.162;11.510;2022-07-21T09:11:53;22.20;99.90
7694;DHT22;3889;48.162;11.510;2022-07-21T09:14:24;22.30;99.90
7694;DHT22;3889;48.162;11.510;2022-07-21T09:16:54;22.20;99.90
7694;DHT22;3889;48.162;11.510;2022-07-21T09:19:24;22.20;99.90
7694;DHT22;3889;48.162;11.510;2022-07-21T09:21:54;22.10;99.90
7694;DHT22;3889;48.162;11.510;2022-07-21T09:24:24;22.10;99.90
7694;DHT22;3889;48.162;11.510;2022-07-21T09:27:01;22.00;99.90
7694;DHT22;3889;48.162;11.510;2022-07-21T09:29:36;22.00;99.90
7694;DHT22;3889;48.162;11.510;2022-07-21T09:32:22;22.00;99.90
7694;DHT22;3889;48.162;11.510;2022-07-21T09:34:52;22.00;99.90
7694;DHT22;3889;48.162;11.510;2022-07-21T09:37:22;22.10;99.90
7694;DHT22;3889;48.162;11.510;2022-07-21T09:39:51;22.00;99.90
7694;DHT22;3889;48.162;11.510;2022-07-21T09:42:24;22.00;99.90
7694;DHT22;3889;48.162;11.510;2022-07-21T09:44:55;22.10;99.90
7694;DHT22;3889;48.162;11.510;2022-07-21T09:47:24;22.10;99.90
7694;DHT22;3889;48.162;11.510;2022-07-21T09:49:56;22.10;99.90
7694;DHT22;3889;48.162;11.510;2022-07-21T09:52:45;22.00;99.90
7694;DHT22;3889;48.162;11.510;2022-07-21T09:55:15;21.90;99.90
7694;DHT22;3889;48.162;11.510;2022-07-21T09:57:44;21.70;99.90
7694;DHT22;3889;48.162;11.510;2022-07-21T10:00:17;21.70;99.90
7694;DHT22;3889;48.162;11.510;2022-07-21T10:02:47;21.60;99.90
7694;DHT22;3889;48.162;11.510;2022-07-21T10:05:18;21.40;99.90
7694;DHT22;3889;48.162;11.510;2022-07-21T10:07:52;21.30;99.90
7694;DHT22;3889;48.162;11.510;2022-07-21T10:10:20;21.20;99.90
7694;DHT22;3889;48.162;11.510;2022-07-21T10:13:08;21.10;99.90
7694;DHT22;3889;48.162;11.510;2022-07-21T10:15:39;20.90;99.90
7694;DHT22;3889;48.162;11.510;2022-07-21T10:18:08;20.90;99.90
7694;DHT22;3889;48.162;11.510;2022-07-21T10:20:40;20.80;99.90
7694;DHT22;3889;48.162;11.510;2022-07-21T10:23:14;20.70;99.90
7694;DHT22;3889;48.162;11.510;2022-07-21T10:25:46;20.60;99.90
7694;DHT22;3889;48.162;11.510;2022-07-21T10:28:17;20.70;99.90
7694;DHT22;3889;48.162;11.510;2022-07-21T10:30:50;20.80;99.90
7694;DHT22;3889;48.162;11.510;2022-07-21T10:33:20;20.80;99.90
7694;DHT22;3889;48.162;11.510;2022-07-21T10:35:50;20.90;99.90
7694;DHT22;3889;48.162;11.510;2022-07-21T10:38:28;21.00;99.90
7694;DHT22;3889;48.162;11.510;2022-07-21T10:40:57;21.10;99.90
7694;DHT22;3889;48.162;11.510;2022-07-21T10:43:38;21.20;99.90
7694;DHT22;3889;48.162;11.510;2022-07-21T10:46:33;21.20;99.90
7694;DHT22;3889;48.162;11.510;2022-07-21T10:49:02;21.10;99.90
7694;DHT22;3889;48.162;11.510;2022-07-21T10:51:33;21.00;99.90
7694;DHT22;3889;48.162;11.510;2022-07-21T10:54:22;21.00;99.90
7694;DHT22;3889;48.162;11.510;2022-07-21T11:00:23;21.10;99.90
7694;DHT22;3889;48.162;11.510;2022-07-21T11:02:55;21.30;99.90
7694;DHT22;3889;48.162;11.510;2022-07-21T11:05:25;21.40;99.90
7694;DHT22;3889;48.162;11.510;2022-07-21T11:08:14;21.30;99.90
7694;DHT22;3889;48.162;11.510;2022-07-21T11:10:46;21.40;99.90
7694;DHT22;3889;48.162;11.510;2022-07-21T11:13:15;21.50;99.90
7694;DHT22;3889;48.162;11.510;2022-07-21T11:15:55;21.40;99.90
7694;DHT22;3889;48.162;11.510;2022-07-21T11:18:26;21.30;99.90
7694;DHT22;3889;48.162;11.510;2022-07-21T11:21:02;21.30;99.90
7694;DHT22;3889;48.162;11.510;2022-07-21T11:23:35;21.30;99.90
7694;DHT22;3889;48.162;11.510;2022-07-21T11:26:04;21.40;99.90
7694;DHT22;3889;48.162;11.510;2022-07-21T11:28:32;21.30;99.90
7694;DHT22;3889;48.162;11.510;2022-07-21T11:31:12;21.20;99.90
7694;DHT22;3889;48.162;11.510;2022-07-21T11:33:43;21.30;99.90
7694;DHT22;3889;48.162;11.510;2022-07-21T11:36:23;21.40;99.90
7694;DHT22;3889;48.162;11.510;2022-07-21T11:39:03;21.40;99.90
7694;DHT22;3889;48.162;11.510;2022-07-21T11:41:33;21.50;99.90
7694;DHT22;3889;48.162;11.510;2022-07-21T11:44:02;21.60;99.90
7694;DHT22;3889;48.162;11.510;2022-07-21T11:46:45;21.60;99.90
7694;DHT22;3889;48.162;11.510;2022-07-21T11:49:15;21.70;99.90
7694;DHT22;3889;48.162;11.510;2022-07-21T11:51:48;21.70;99.90
7694;DHT22;3889;48.162;11.510;2022-07-21T11:54:20;21.50;99.90
7694;DHT22;3889;48.162;11.510;2022-07-21T11:56:49;21.60;99.90
7694;DHT22;3889;48.162;11.510;2022-07-21T11:59:17;21.70;99.90
7694;DHT22;3889;48.162;11.510;2022-07-21T12:01:53;21.70;99.90
7694;DHT22;3889;48.162;11.510;2022-07-21T12:04:36;21.90;99.90
7694;DHT22;3889;48.162;11.510;2022-07-21T12:07:09;21.80;99.90
7694;DHT22;3889;48.162;11.510;2022-07-21T12:09:38;21.90;99.90
7694;DHT22;3889;48.162;11.510;2022-07-21T12:12:07;21.90;99.90
7694;DHT22;3889;48.162;11.510;2022-07-21T12:14:43;21.90;99.90
7694;DHT22;3889;48.162;11.510;2022-07-21T12:17:11;22.10;99.90
7694;DHT22;3889;48.162;11.510;2022-07-21T12:19:41;22.10;99.90
7694;DHT22;3889;48.162;11.510;2022-07-21T12:22:09;22.20;99.90
7694;DHT22;3889;48.162;11.510;2022-07-21T12:24:54;22.10;99.90
7694;DHT22;3889;48.162;11.510;2022-07-21T12:27:22;22.20;99.90
7694;DHT22;3889;48.162;11.510;2022-07-21T12:29:50;22.40;99.90
7694;DHT22;3889;48.162;11.510;2022-07-21T12:32:45;22.30;99.90
7694;DHT22;3889;48.162;11.510;2022-07-21T12:35:24;22.40;99.90
7694;DHT22;3889;48.162;11.510;2022-07-21T12:38:01;22.50;99.90
7694;DHT22;3889;48.162;11.510;2022-07-21T12:40:31;22.50;99.90
7694;DHT22;3889;48.162;11.510;2022-07-21T12:43:12;22.50;99.90
7694;DHT22;3889;48.162;11.510;2022-07-21T12:45:56;22.60;99.90
7694;DHT22;3889;48.162;11.510;2022-07-21T12:48:25;22.60;99.90
7694;DHT22;3889;48.162;11.510;2022-07-21T12:51:00;22.70;99.90
7694;DHT22;3889;48.162;11.510;2022-07-21T12:53:30;22.90;99.90
7694;DHT22;3889;48.162;11.510;2022-07-21T12:55:58;23.20;99.90
7694;DHT22;3889;48.162;11.510;2022-07-21T12:58:26;23.30;99.90
7694;DHT22;3889;48.162;11.510;2022-07-21T13:00:54;23.20;99.90
7694;DHT22;3889;48.162;11.510;2022-07-21T13:03:22;23.30;99.90
7694;DHT22;3889;48.162;11.510;2022-07-21T13:05:59;23.20;99.90
7694;DHT22;3889;48.162;11.510;2022-07-21T13:08:27;23.20;99.90
7694;DHT22;3889;48.162;11.510;2022-07-21T13:10:55;23.20;99.90
7694;DHT22;3889;48.162;11.510;2022-07-21T13:13:24;23.20;99.90
7694;DHT22;3889;48.162;11.510;2022-07-21T13:15:52;23.10;99.90
7694;DHT22;3889;48.162;11.510;2022-07-21T13:18:20;23.10;99.90
7694;DHT22;3889;48.162;11.510;2022-07-21T13:20:48;23.20;99.90
7694;DHT22;3889;48.162;11.510;2022-07-21T13:23:18;23.20;99.90
7694;DHT22;3889;48.162;11.510;2022-07-21T13:25:47;23.30;99.90
7694;DHT22;3889;48.162;11.510;2022-07-21T13:28:30;23.30;99.90
7694;DHT22;3889;48.162;11.510;2022-07-21T13:30:58;23.10;99.90
7694;DHT22;3889;48.162;11.510;2022-07-21T13:33:26;23.10;99.90
7694;DHT22;3889;48.162;11.510;2022-07-21T13:35:54;23.20;99.90
7694;DHT22;3889;48.162;11.510;2022-07-21T13:38:23;23.30;99.90
7694;DHT22;3889;48.162;11.510;2022-07-21T13:40:51;23.40;99.90
7694;DHT22;3889;48.162;11.510;2022-07-21T13:43:39;23.20;99.90
7694;DHT22;3889;48.162;11.510;2022-07-21T13:46:08;23.10;99.90
7694;DHT22;3889;48.162;11.510;2022-07-21T13:48:36;23.20;99.90
7694;DHT22;3889;48.162;11.510;2022-07-21T13:51:10;23.20;99.90
7694;DHT22;3889;48.162;11.510;2022-07-21T13:53:41;23.10;99.90
7694;DHT22;3889;48.162;11.510;2022-07-21T13:56:09;23.00;99.90
7694;DHT22;3889;48.162;11.510;2022-07-21T13:58:38;23.10;99.90
7694;DHT22;3889;48.162;11.510;2022-07-21T14:01:06;23.20;99.90
7694;DHT22;3889;48.162;11.510;2022-07-21T14:03:35;23.10;99.90
7694;DHT22;3889;48.162;11.510;2022-07-21T14:06:04;23.20;99.90
7694;DHT22;3889;48.162;11.510;2022-07-21T14:08:32;23.20;99.90
7694;DHT22;3889;48.162;11.510;2022-07-21T14:11:01;23.20;99.90
7694;DHT22;3889;48.162;11.510;2022-07-21T14:13:29;23.30;99.90
7694;DHT22;3889;48.162;11.510;2022-07-21T14:15:57;23.30;99.90
7694;DHT22;3889;48.162;11.510;2022-07-21T14:18:25;23.50;99.90
7694;DHT22;3889;48.162;11.510;2022-07-21T14:20:53;23.60;99.90
7694;DHT22;3889;48.162;11.510;2022-07-21T14:23:22;23.60;99.90
7694;DHT22;3889;48.162;11.510;2022-07-21T14:25:51;23.80;99.90
7694;DHT22;3889;48.162;11.510;2022-07-21T14:28:21;24.00;99.90
7694;DHT22;3889;48.162;11.510;2022-07-21T14:30:49;24.20;99.90
7694;DHT22;3889;48.162;11.510;2022-07-21T14:33:25;24.40;99.90
7694;DHT22;3889;48.162;11.510;2022-07-21T14:35:53;24.30;99.90
7694;DHT22;3889;48.162;11.510;2022-07-21T14:38:21;24.10;99.90
7694;DHT22;3889;48.162;11.510;2022-07-21T14:40:49;23.90;99.90
7694;DHT22;3889;48.162;11.510;2022-07-21T14:43:16;24.10;99.90
7694;DHT22;3889;48.162;11.510;2022-07-21T14:45:46;24.20;99.90
7694;DHT22;3889;48.162;11.510;2022-07-21T14:48:13;24.20;99.90
7694;DHT22;3889;48.162;11.510;2022-07-21T14:50:41;24.20;99.90
7694;DHT22;3889;48.162;11.510;2022-07-21T14:53:09;24.30;99.90
7694;DHT22;3889;48.162;11.510;2022-07-21T14:55:37;24.00;99.90
7694;DHT22;3889;48.162;11.510;2022-07-21T14:58:10;24.10;99.90
7694;DHT22;3889;48.162;11.510;2022-07-21T15:00:38;24.20;99.90
7694;DHT22;3889;48.162;11.510;2022-07-21T15:03:07;24.40;99.90
7694;DHT22;3889;48.162;11.510;2022-07-21T15:05:35;24.60;99.90
7694;DHT22;3889;48.162;11.510;2022-07-21T15:08:04;24.80;99.90
7694;DHT22;3889;48.162;11.510;2022-07-21T15:10:39;24.80;99.90
7694;DHT22;3889;48.162;11.510;2022-07-21T15:13:06;25.00;99.90
7694;DHT22;3889;48.162;11.510;2022-07-21T15:15:34;24.90;99.90
7694;DHT22;3889;48.162;11.510;2022-07-21T15:18:04;24.90;99.90
7694;DHT22;3889;48.162;11.510;2022-07-21T15:20:33;24.90;99.90
7694;DHT22;3889;48.162;11.510;2022-07-21T15:23:01;25.20;99.90
7694;DHT22;3889;48.162;11.510;2022-07-21T15:25:29;25.30;99.90
7694;DHT22;3889;48.162;11.510;2022-07-21T15:27:57;25.50;99.90
7694;DHT22;3889;48.162;11.510;2022-07-21T15:30:25;25.40;99.90
7694;DHT22;3889;48.162;11.510;2022-07-21T15:32:53;25.40;99.90
7694;DHT22;3889;48.162;11.510;2022-07-21T15:35:21;25.50;99.90
7694;DHT22;3889;48.162;11.510;2022-07-21T15:37:50;25.50;99.90
7694;DHT22;3889;48.162;11.510;2022-07-21T15:40:18;25.40;99.90
7694;DHT22;3889;48.162;11.510;2022-07-21T15:42:46;25.20;99.90
7694;DHT22;3889;48.162;11.510;2022-07-21T15:45:14;25.20;99.90
7694;DHT22;3889;48.162;11.510;2022-07-21T15:47:42;25.20;99.90
7694;DHT22;3889;48.162;11.510;2022-07-21T15:50:10;25.00;99.90
7694;DHT22;3889;48.162;11.510;2022-07-21T15:52:40;24.90;99.90
7694;DHT22;3889;48.162;11.510;2022-07-21T15:55:10;24.90;99.90
7694;DHT22;3889;48.162;11.510;2022-07-21T15:57:39;24.90;99.90
7694;DHT22;3889;48.162;11.510;2022-07-21T16:00:09;24.80;99.90
7694;DHT22;3889;48.162;11.510;2022-07-21T16:02:38;24.90;99.90
7694;DHT22;3889;48.162;11.510;2022-07-21T16:05:08;25.00;99.90